Time;durP1;ratioP1;P1;durP2;ratioP2;P2;SDS_P1;SDS_P2;PMS_P1;PMS_P2;Temp;Humidity;BMP_temperature;BMP_pressure;BME280_temperature;BME280_humidity;BME280_pressure;Samples;Min_cycle;Max_cycle;Signal;HPM_P1;HPM_P2
2021/04/12 00:00:46;;;;;;;5.75;3.67;;;;;;;6.07;71.46;100561.09;4976949;28;20049;-63
2021/04/12 00:03:19;;;;;;;4.75;4.13;;;;;;;6.07;71.60;100565.38;4959587;28;20449;-63
2021/04/12 00:06:02;;;;;;;6.75;3.50;;;;;;;6.07;71.36;100570.53;4959729;28;20039;-63
2021/04/12 00:08:49;;;;;;;4.97;3.53;;;;;;;6.05;71.49;100573.03;4959684;28;20053;-63
2021/04/12 00:11:46;;;;;;;5.32;3.58;;;;;;;6.05;71.44;100575.59;4959566;28;20046;-63
2021/04/12 00:14:28;;;;;;;4.70;3.70;;;;;;;6.05;71.70;100579.88;4977334;28;20043;-63
2021/04/12 00:17:08;;;;;;;5.13;4.00;;;;;;;6.04;71.36;100576.41;4976769;28;20035;-63
2021/04/12 00:19:47;;;;;;;4.05;3.45;;;;;;;6.03;71.17;100571.22;4959363;28;20498;-63
2021/04/12 00:22:55;;;;;;;5.75;3.17;;;;;;;6.04;71.37;100583.25;4977218;28;20041;-63
2021/04/12 00:25:38;;;;;;;7.03;3.10;;;;;;;6.01;71.13;100581.41;4920571;29;20063;-63
2021/04/12 00:28:29;;;;;;;7.45;3.10;;;;;;;6.01;71.33;100584.00;4905004;29;20204;-63
2021/04/12 00:31:08;;;;;;;5.75;3.13;;;;;;;6.00;71.84;100587.38;4946660;28;20050;-63
2021/04/12 00:33:43;;;;;;;5.88;3.83;;;;;;;6.00;71.68;100589.94;4976659;28;20034;-63
2021/04/12 00:36:26;;;;;;;6.63;3.42;;;;;;;6.01;71.81;100588.28;4975148;28;20450;-63
2021/04/12 00:39:38;;;;;;;5.32;3.50;;;;;;;5.99;71.21;100589.88;4975714;28;20046;-63
2021/04/12 00:42:31;;;;;;;4.70;3.42;;;;;;;5.99;71.55;100595.00;4904193;29;20036;-63
2021/04/12 00:45:34;;;;;;;7.68;3.15;;;;;;;5.98;71.10;100612.16;4959320;28;20494;-63
2021/04/12 00:48:35;;;;;;;6.72;4.28;;;;;;;5.97;71.33;100602.69;4975291;28;20046;-63
2021/04/12 00:51:34;;;;;;;4.65;3.35;;;;;;;5.96;71.20;100606.06;4962517;28;20047;-63
2021/04/12 00:54:18;;;;;;;4.70;3.65;;;;;;;5.97;71.88;100609.50;4959673;28;20045;-63
2021/04/12 00:57:04;;;;;;;5.68;3.40;;;;;;;5.95;71.48;100610.31;4976586;28;20053;-63
2021/04/12 01:00:01;;;;;;;6.03;3.88;;;;;;;5.93;71.06;100608.50;4976292;28;20042;-63
2021/04/12 01:02:48;;;;;;;3.97;3.20;;;;;;;5.93;71.69;100605.91;4975873;28;20055;-63
2021/04/12 01:05:42;;;;;;;4.75;3.47;;;;;;;5.93;71.11;100613.63;4974706;28;20039;-63
2021/04/12 01:08:16;;;;;;;6.75;3.08;;;;;;;5.93;71.25;100613.63;4958651;28;20043;-63
2021/04/12 01:11:00;;;;;;;5.40;3.80;;;;;;;5.92;71.33;100620.47;4975984;28;20060;-62
2021/04/12 01:13:38;;;;;;;4.13;3.42;;;;;;;5.91;71.43;100623.88;4975025;28;20568;-63
2021/04/12 01:16:19;;;;;;;6.25;3.72;;;;;;;5.91;71.39;100625.56;4958431;28;20463;-63
2021/04/12 01:18:47;;;;;;;5.57;3.35;;;;;;;5.91;71.34;100630.69;4974870;28;20045;-63
2021/04/12 01:21:34;;;;;;;4.05;3.15;;;;;;;5.92;71.19;100619.59;4974621;28;20035;-63
2021/04/12 01:24:18;;;;;;;5.90;4.10;;;;;;;5.89;71.13;100629.75;4974927;28;20077;-62
2021/04/12 01:27:07;;;;;;;4.57;3.53;;;;;;;5.88;71.63;100627.97;4975907;28;20035;-63
2021/04/12 01:29:54;;;;;;;5.10;3.65;;;;;;;5.87;70.90;100627.13;4958438;28;20035;-63
2021/04/12 01:32:32;;;;;;;4.88;3.70;;;;;;;5.87;71.24;100645.13;4975668;28;20026;-63
2021/04/12 01:35:25;;;;;;;7.15;4.20;;;;;;;5.87;70.98;100639.06;4974283;28;20038;-63
2021/04/12 01:38:26;;;;;;;5.70;3.88;;;;;;;5.85;71.14;100638.13;4974679;28;20039;-63
2021/04/12 01:41:10;;;;;;;6.65;3.72;;;;;;;5.85;71.14;100640.69;4973942;28;20450;-63
2021/04/12 01:43:51;;;;;;;5.07;3.60;;;;;;;5.84;71.38;100652.69;4974164;28;20043;-63
2021/04/12 01:46:21;;;;;;;6.90;3.80;;;;;;;5.85;71.03;100645.84;4974672;28;20038;-63
2021/04/12 01:49:06;;;;;;;6.13;4.07;;;;;;;5.83;71.39;100642.34;4958118;28;20039;-63
2021/04/12 01:51:56;;;;;;;6.28;3.78;;;;;;;5.82;71.62;100643.16;4975281;28;20043;-63
2021/04/12 01:54:30;;;;;;;7.45;3.85;;;;;;;5.81;71.21;100652.56;4974250;28;20395;-63
2021/04/12 01:57:11;;;;;;;5.35;4.05;;;;;;;5.82;71.07;100656.88;4975651;28;20038;-63
2021/04/12 01:59:55;;;;;;;3.63;3.25;;;;;;;5.79;71.12;100655.06;4975280;28;20038;-63
2021/04/12 02:02:33;;;;;;;3.77;3.27;;;;;;;5.81;71.37;100646.53;4957739;28;20403;-63
2021/04/12 02:05:26;;;;;;;3.65;3.28;;;;;;;5.81;71.49;100659.41;4973968;28;20789;-63
2021/04/12 02:08:04;;;;;;;7.15;3.88;;;;;;;5.78;71.56;100658.44;4973934;28;20038;-62
2021/04/12 02:10:56;;;;;;;6.30;4.32;;;;;;;5.77;71.77;100659.25;4974179;28;20502;-63
2021/04/12 02:13:45;;;;;;;5.40;3.72;;;;;;;5.77;70.70;100661.84;4969225;28;20495;-63
2021/04/12 02:16:11;;;;;;;6.70;3.80;;;;;;;5.78;71.67;100667.84;4957675;28;20038;-63
2021/04/12 02:19:10;;;;;;;6.82;4.70;;;;;;;5.77;71.63;100666.06;4973829;28;20065;-62
2021/04/12 02:21:57;;;;;;;6.88;3.83;;;;;;;5.77;71.75;100677.25;4956668;28;20494;-63
2021/04/12 02:24:23;;;;;;;4.45;3.53;;;;;;;5.76;70.98;100674.63;4957943;28;20069;-63
2021/04/12 02:27:13;;;;;;;3.95;3.42;;;;;;;5.75;71.57;100673.75;4973546;28;20039;-63
2021/04/12 02:30:08;;;;;;;4.40;3.55;;;;;;;5.74;71.16;100674.53;4974562;28;20129;-63
2021/04/12 02:32:40;;;;;;;;;;;;;;;5.74;71.38;100676.25;4957968;28;20486;-63
2021/04/12 02:35:13;;;;;;;6.10;3.55;;;;;;;5.72;71.50;100676.16;4973527;28;19914;-63
2021/04/12 02:37:54;;;;;;;5.28;4.43;;;;;;;5.72;71.18;100678.75;4974988;28;20042;-62
2021/04/12 02:40:28;;;;;;;6.47;3.80;;;;;;;5.71;70.99;100678.69;4974821;28;20035;-63
2021/04/12 02:43:14;;;;;;;6.10;3.97;;;;;;;5.71;71.25;100681.25;4974444;28;20058;-63
2021/04/12 02:46:21;;;;;;;3.97;3.20;;;;;;;5.71;71.01;100682.13;4957349;28;20402;-63
2021/04/12 02:48:59;;;;;;;5.03;4.40;;;;;;;5.70;70.85;100690.63;4973014;28;20049;-63
2021/04/12 02:51:50;;;;;;;6.22;3.95;;;;;;;5.69;71.32;100694.03;4957458;28;20035;-63
2021/04/12 02:54:34;;;;;;;4.05;3.25;;;;;;;5.69;71.55;100694.03;4968760;28;20047;-63
2021/04/12 02:57:21;;;;;;;4.53;3.83;;;;;;;5.68;70.76;100697.44;4957076;28;20074;-63
2021/04/12 03:00:20;;;;;;;6.07;3.72;;;;;;;5.68;71.21;100693.97;4957597;28;20050;-63
2021/04/12 03:02:51;;;;;;;7.60;4.28;;;;;;;5.67;71.12;100697.34;4972734;28;20058;-63
2021/04/12 03:05:54;;;;;;;5.50;4.05;;;;;;;5.67;71.19;100703.38;4973120;28;20068;-63
2021/04/12 03:08:45;;;;;;;4.88;3.80;;;;;;;5.66;71.16;100698.16;4974452;28;20565;-63
2021/04/12 03:11:48;;;;;;;4.63;3.70;;;;;;;5.64;71.95;100698.97;4957676;28;20046;-63
2021/04/12 03:14:41;;;;;;;4.97;3.85;;;;;;;5.64;71.69;100701.53;4956845;28;20482;-63
2021/04/12 03:17:27;;;;;;;4.32;3.67;;;;;;;5.63;71.09;100712.63;4972875;28;20063;-63
2021/04/12 03:22:35;;;;;;;4.68;3.80;;;;;;;5.62;70.70;100716.00;5165014;27;20373;-61
2021/04/12 03:25:28;;;;;;;5.78;3.80;;;;;;;5.61;71.55;100701.38;5130412;28;20050;-63
2021/04/12 03:28:02;;;;;;;6.30;4.28;;;;;;;5.62;71.19;100710.00;5112940;28;20035;-63
2021/04/12 03:30:51;;;;;;;5.97;4.47;;;;;;;5.61;71.57;100711.66;5130920;28;20101;-63
2021/04/12 03:33:42;;;;;;;7.35;3.60;;;;;;;5.61;71.55;100709.09;5112842;28;20149;-63
2021/04/12 03:36:22;;;;;;;4.80;4.35;;;;;;;5.62;71.40;100715.13;5130077;28;20040;-63
2021/04/12 03:39:13;;;;;;;6.90;5.35;;;;;;;5.60;70.80;100714.19;5112840;28;20058;-63
2021/04/12 03:41:50;;;;;;;5.82;4.70;;;;;;;5.59;71.10;100721.03;5112894;28;20108;-63
2021/04/12 03:44:33;;;;;;;5.82;4.20;;;;;;;5.59;71.35;100715.00;5112721;28;20119;-64
2021/04/12 03:47:02;;;;;;;6.50;4.07;;;;;;;5.57;71.55;100725.22;5113442;28;20091;-63
2021/04/12 03:49:44;;;;;;;4.43;3.80;;;;;;;5.58;71.23;100729.56;5129773;28;20054;-64
2021/04/12 03:52:41;;;;;;;4.80;3.78;;;;;;;5.57;71.44;100721.75;5112805;28;20069;-63
2021/04/12 03:55:20;;;;;;;5.85;4.55;;;;;;;5.57;71.76;100725.22;5130119;28;20122;-63
2021/04/12 03:58:23;;;;;;;6.65;5.22;;;;;;;5.56;70.94;100731.16;5131394;27;20059;-63
2021/04/12 04:01:06;;;;;;;7.50;4.80;;;;;;;5.56;71.57;100737.97;5130894;28;20482;-63
2021/04/12 04:03:44;;;;;;;6.78;4.47;;;;;;;5.55;71.75;100737.13;5131136;27;20035;-63
2021/04/12 04:06:19;;;;;;;6.25;4.25;;;;;;;5.55;71.17;100733.66;5112978;28;20055;-63
2021/04/12 04:09:15;;;;;;;7.38;5.30;;;;;;;5.55;71.17;100741.34;5113028;28;20398;-63
2021/04/12 04:11:58;;;;;;;8.60;5.53;;;;;;;5.53;71.47;100732.72;5130470;28;20127;-64
2021/04/12 04:14:43;;;;;;;8.68;5.07;;;;;;;5.52;71.09;100741.25;5129373;28;20046;-61
2021/04/12 04:17:27;;;;;;;;;;;;;;;5.52;71.05;100741.25;5112562;28;20047;-63
2021/04/12 04:20:29;;;;;;;6.28;5.30;;;;;;;5.50;71.86;100743.72;5130338;27;19915;-63
2021/04/12 04:23:23;;;;;;;7.40;5.35;;;;;;;5.49;71.44;100740.28;5130490;28;20038;-64
2021/04/12 04:26:12;;;;;;;9.18;5.60;;;;;;;5.49;70.95;100736.81;5128967;28;20406;-64
2021/04/12 04:29:00;;;;;;;7.40;5.18;;;;;;;5.48;71.02;100740.19;5130429;27;20116;-63
2021/04/12 04:31:45;;;;;;;9.55;5.75;;;;;;;5.47;71.67;100741.88;5129973;28;20516;-63
2021/04/12 04:34:24;;;;;;;6.72;5.47;;;;;;;5.46;71.41;100739.22;5098268;28;20039;-64
2021/04/12 04:37:21;;;;;;;9.95;6.15;;;;;;;5.47;71.40;100749.59;5097770;28;20043;-63
2021/04/12 04:40:11;;;;;;;7.22;6.45;;;;;;;5.45;71.25;100748.66;5098714;28;20114;-63
2021/04/12 04:43:05;;;;;;;10.05;4.78;;;;;;;5.44;70.92;100752.03;5116563;27;20068;-63
2021/04/12 04:46:02;;;;;;;7.68;5.68;;;;;;;5.44;70.80;100749.44;5116806;28;20518;-63
2021/04/12 04:49:04;;;;;;;8.57;5.90;;;;;;;5.44;71.01;100754.59;5116543;28;20032;-63
2021/04/12 04:51:48;;;;;;;9.25;6.00;;;;;;;5.44;71.08;100757.16;5115094;28;20047;-63
2021/04/12 04:54:33;;;;;;;6.00;5.35;;;;;;;5.42;71.45;100756.19;5115317;28;20063;-63
2021/04/12 04:57:01;;;;;;;6.63;5.53;;;;;;;5.43;70.93;100754.53;5114878;28;20027;-63
2021/04/12 04:59:52;;;;;;;10.05;5.85;;;;;;;5.42;70.97;100756.19;5115936;28;20028;-63
2021/04/12 05:02:33;;;;;;;9.38;5.07;;;;;;;5.43;71.00;100762.25;5085063;28;20052;-63
2021/04/12 05:05:07;;;;;;;9.32;5.88;;;;;;;5.42;71.13;100769.06;5097621;28;20059;-63
2021/04/12 05:08:17;;;;;;;9.02;5.93;;;;;;;5.41;71.12;100779.28;5114929;28;20149;-63
2021/04/12 05:11:20;;;;;;;7.30;5.90;;;;;;;5.41;71.37;100780.16;5114577;28;20038;-63
2021/04/12 05:14:11;;;;;;;6.78;5.25;;;;;;;5.38;71.18;100782.56;5114507;28;20031;-63
2021/04/12 05:16:53;;;;;;;7.00;5.40;;;;;;;5.38;70.80;100787.72;5116320;28;20035;-63
2021/04/12 05:19:35;;;;;;;8.80;5.82;;;;;;;5.38;71.58;100787.72;5097281;28;20088;-63
2021/04/12 05:22:34;;;;;;;7.00;5.65;;;;;;;5.38;70.70;100795.41;5114370;28;20045;-63
2021/04/12 05:25:21;;;;;;;6.93;5.50;;;;;;;5.37;71.02;100793.69;5114825;28;20028;-63
2021/04/12 05:28:05;;;;;;;8.35;5.97;;;;;;;5.36;71.43;100799.63;5115219;28;20044;-63
2021/04/12 05:31:25;;;;;;;8.35;6.30;;;;;;;5.37;71.51;100805.63;5097051;28;20035;-63
2021/04/12 05:34:09;;;;;;;6.68;5.03;;;;;;;5.37;71.56;100797.94;5115420;28;20038;-63
2021/04/12 05:36:49;;;;;;;8.18;5.90;;;;;;;5.36;70.97;100816.72;5115589;28;20107;-64
2021/04/12 05:39:59;;;;;;;7.47;5.38;;;;;;;5.34;71.10;100814.97;5096844;28;20502;-63
2021/04/12 05:43:00;;;;;;;8.10;5.47;;;;;;;5.34;71.02;100820.09;5066993;28;20049;-63
2021/04/12 05:45:34;;;;;;;9.10;5.93;;;;;;;5.35;71.37;100821.00;5114345;28;20035;-63
2021/04/12 05:48:16;;;;;;;7.13;5.32;;;;;;;5.33;71.38;100820.03;5097227;28;20112;-63
2021/04/12 05:51:01;;;;;;;7.93;5.78;;;;;;;5.33;71.14;100822.59;5097232;28;20042;-63
2021/04/12 05:53:45;;;;;;;8.25;5.13;;;;;;;5.31;71.02;100824.22;5115025;28;20070;-63
2021/04/12 05:56:26;;;;;;;8.77;5.82;;;;;;;5.31;71.36;100834.50;5113810;28;20460;-64
2021/04/12 05:59:40;;;;;;;9.38;5.72;;;;;;;5.31;71.28;100831.94;5113693;28;20035;-63
2021/04/12 06:02:28;;;;;;;8.05;5.22;;;;;;;5.30;71.30;100835.31;5052198;28;20033;-63
2021/04/12 06:05:07;;;;;;;6.10;5.25;;;;;;;5.30;70.76;100837.88;5094502;28;20047;-63
2021/04/12 06:08:03;;;;;;;7.45;5.20;;;;;;;5.30;71.35;100849.03;5130988;27;20046;-61
2021/04/12 06:11:16;;;;;;;9.57;5.95;;;;;;;5.30;70.98;100851.59;5113604;28;20039;-62
2021/04/12 06:14:16;;;;;;;7.32;5.32;;;;;;;5.28;71.21;100847.19;5078130;28;20071;-63
2021/04/12 06:17:06;;;;;;;6.18;4.68;;;;;;;5.29;71.75;100856.66;5114841;27;20083;-63
2021/04/12 06:19:50;;;;;;;8.13;4.22;;;;;;;5.28;71.32;100857.47;5115134;28;20063;-63
2021/04/12 06:22:23;;;;;;;7.60;5.65;;;;;;;5.28;71.39;100857.47;5114742;28;20043;-63
2021/04/12 06:25:16;;;;;;;6.10;4.45;;;;;;;5.27;71.01;100860.84;5113502;28;20035;-63
2021/04/12 06:28:21;;;;;;;6.78;4.82;;;;;;;5.27;71.36;100873.69;5096146;28;20038;-63
2021/04/12 06:31:24;;;;;;;11.18;4.47;;;;;;;5.24;70.53;100866.72;5095885;28;20039;-63
2021/04/12 06:34:28;;;;;;;9.95;5.15;;;;;;;5.23;70.73;100884.63;5113202;28;20084;-63
2021/04/12 06:37:18;;;;;;;6.20;4.90;;;;;;;5.21;71.12;100881.97;5114559;28;20027;-63
2021/04/12 06:40:21;;;;;;;6.78;4.88;;;;;;;5.20;70.89;100884.50;5113092;28;20132;-63
2021/04/12 06:43:12;;;;;;;6.20;4.80;;;;;;;5.21;70.92;100894.84;5114167;28;20039;-63
2021/04/12 06:46:03;;;;;;;6.50;4.57;;;;;;;5.21;71.41;100896.53;5112066;28;20036;-63
2021/04/12 06:48:51;;;;;;;6.60;5.18;;;;;;;5.17;71.51;100898.94;5112815;28;20047;-63
2021/04/12 06:51:47;;;;;;;6.78;4.88;;;;;;;5.17;71.27;100900.59;5113343;28;20031;-63
2021/04/12 06:54:40;;;;;;;6.00;4.85;;;;;;;5.17;71.29;100898.03;5095823;28;20418;-63
2021/04/12 06:57:35;;;;;;;6.90;4.82;;;;;;;5.16;71.00;100907.44;5096049;28;20086;-64
2021/04/12 07:00:19;;;;;;;;;;;;;;;5.15;71.20;100910.81;5024788;28;20053;-63
2021/04/12 07:02:59;;;;;;;6.32;4.30;;;;;;;5.15;71.00;100912.50;5129838;27;19982;-64
2021/04/12 07:05:41;;;;;;;5.72;4.68;;;;;;;5.15;70.87;100917.63;5095554;28;20122;-63
2021/04/12 07:08:20;;;;;;;5.57;5.03;;;;;;;5.13;71.18;100909.84;5114068;28;20368;-63
2021/04/12 07:11:23;;;;;;;6.40;4.43;;;;;;;5.12;71.31;100910.66;5113935;28;20395;-63
2021/04/12 07:14:10;;;;;;;8.60;4.78;;;;;;;5.12;71.36;100920.94;5112781;28;20036;-63
2021/04/12 07:17:01;;;;;;;8.13;5.50;;;;;;;5.11;70.96;100919.16;5095805;28;20040;-64
2021/04/12 07:19:55;;;;;;;5.45;4.38;;;;;;;5.13;70.76;100924.41;5113264;28;20495;-63
2021/04/12 07:22:31;;;;;;;5.18;4.53;;;;;;;5.12;70.42;100931.22;5112335;28;20111;-63
2021/04/12 07:25:22;;;;;;;5.82;4.10;;;;;;;5.11;70.95;100932.03;5095941;28;20035;-63
2021/04/12 07:27:56;;;;;;;8.55;4.93;;;;;;;5.10;70.76;100926.81;5113902;28;20027;-64
2021/04/12 07:30:36;;;;;;;6.43;5.32;;;;;;;5.09;71.56;100933.63;5112050;28;20040;-64
2021/04/12 07:33:25;;;;;;;7.18;5.05;;;;;;;5.11;70.75;100939.72;5095468;28;20395;-63
2021/04/12 07:36:28;;;;;;;5.60;4.88;;;;;;;5.10;71.32;100945.66;5048849;28;20050;-64
2021/04/12 07:39:12;;;;;;;7.32;4.43;;;;;;;5.11;71.33;100942.31;5114033;28;20043;-64
2021/04/12 07:41:57;;;;;;;8.65;5.15;;;;;;;5.10;70.83;100948.25;5112602;28;20479;-64
2021/04/12 07:44:55;;;;;;;5.60;4.80;;;;;;;5.08;71.22;100954.09;5112529;28;20035;-64
2021/04/12 07:47:39;;;;;;;;;;;;;;;5.05;70.73;100959.97;5113737;28;20032;-64
2021/04/12 07:50:23;;;;;;;6.75;5.10;;;;;;;5.06;71.28;100956.56;5129269;28;19954;-64
2021/04/12 07:53:33;;;;;;;10.52;5.63;;;;;;;5.05;70.82;100959.09;5113159;28;20039;-64
2021/04/12 07:56:37;;;;;;;8.32;6.05;;;;;;;5.02;70.85;100967.53;5095138;28;20450;-64
2021/04/12 07:59:36;;;;;;;6.50;5.00;;;;;;;5.02;71.09;100965.81;5112241;28;20036;-64
2021/04/12 08:02:39;;;;;;;7.70;5.43;;;;;;;5.03;70.79;100970.16;5112295;28;20486;-64
2021/04/12 08:05:48;;;;;;;9.60;5.55;;;;;;;5.03;70.65;100970.16;5113381;28;20028;-64
2021/04/12 08:08:19;;;;;;;8.40;5.22;;;;;;;5.04;70.66;100973.63;5093920;28;20063;-64
2021/04/12 08:10:51;;;;;;;6.10;4.88;;;;;;;5.02;70.86;100972.66;5117363;28;20031;-64
2021/04/12 08:13:54;;;;;;;7.60;5.30;;;;;;;5.01;70.80;100973.47;5098601;28;20490;-64
2021/04/12 08:16:57;;;;;;;6.80;4.82;;;;;;;5.01;70.67;100978.59;5098381;28;20035;-64
2021/04/12 08:19:50;;;;;;;7.05;4.70;;;;;;;5.01;70.88;100976.03;5115796;28;20409;-63
2021/04/12 08:22:40;;;;;;;7.00;5.00;;;;;;;5.02;70.87;100975.22;5115445;28;20127;-64
2021/04/12 08:25:33;;;;;;;6.53;4.93;;;;;;;5.01;70.56;100971.75;5115744;28;20027;-64
2021/04/12 08:28:36;;;;;;;5.90;3.70;;;;;;;5.00;70.85;100969.13;5116988;28;20043;-64
2021/04/12 08:31:35;;;;;;;6.82;4.43;;;;;;;5.01;70.79;100969.19;5116424;28;20061;-64
2021/04/12 08:34:22;;;;;;;8.45;4.22;;;;;;;5.01;71.48;100965.75;5115879;28;20043;-64
2021/04/12 08:37:00;;;;;;;6.30;4.20;;;;;;;4.99;70.98;100975.06;5116988;28;20122;-64
2021/04/12 08:39:48;;;;;;;6.65;4.22;;;;;;;5.00;70.62;100976.81;5099093;28;20366;-64
2021/04/12 08:42:53;;;;;;;7.10;4.90;;;;;;;5.01;71.18;100976.03;5116764;28;20047;-63
2021/04/12 08:45:37;;;;;;;;;;;;;;;5.02;71.48;100975.22;5098711;28;20085;-63
2021/04/12 08:48:18;;;;;;;6.85;4.22;;;;;;;5.05;70.83;100982.22;5116680;28;19947;-63
2021/04/12 08:51:11;;;;;;;5.78;4.60;;;;;;;5.06;70.74;100986.53;5116418;28;20054;-64
2021/04/12 08:53:55;;;;;;;4.68;3.83;;;;;;;5.07;70.98;100984.03;5115189;28;20059;-63
2021/04/12 08:56:38;;;;;;;6.13;3.83;;;;;;;5.09;71.06;100982.44;5116574;28;20036;-64
2021/04/12 08:59:47;;;;;;;5.43;4.05;;;;;;;5.13;70.71;100981.81;5098250;28;20040;-63
2021/04/12 09:02:47;;;;;;;5.43;3.92;;;;;;;5.15;71.07;100974.16;5115054;28;20063;-64
2021/04/12 09:05:34;;;;;;;5.15;3.72;;;;;;;5.15;71.00;100981.88;5077722;28;20051;-64
2021/04/12 09:08:37;;;;;;;4.97;2.70;;;;;;;5.15;70.50;100989.59;5098182;28;20028;-63
2021/04/12 09:11:41;;;;;;;3.70;3.00;;;;;;;5.19;70.90;100978.69;5114966;28;20031;-63
2021/04/12 09:14:34;;;;;;;3.73;2.67;;;;;;;5.27;70.95;100994.50;5115216;28;20067;-63
2021/04/12 09:17:37;;;;;;;4.82;2.78;;;;;;;5.31;70.40;100996.44;5053875;28;20143;-63
2021/04/12 09:20:40;;;;;;;4.53;2.83;;;;;;;5.30;70.75;100987.84;5114428;28;20436;-63
2021/04/12 09:23:28;;;;;;;4.78;2.60;;;;;;;5.33;70.36;100992.28;5115423;28;20043;-63
2021/04/12 09:26:40;;;;;;;4.20;2.55;;;;;;;5.35;70.28;100993.25;5115614;28;20036;-63
2021/04/12 09:29:12;;;;;;;3.30;2.22;;;;;;;5.36;70.25;100992.44;5032790;28;20148;-63
2021/04/12 09:31:55;;;;;;;4.35;3.00;;;;;;;5.33;70.52;100998.28;5032977;28;20091;-63
2021/04/12 09:34:39;;;;;;;2.85;2.50;;;;;;;5.30;70.63;100998.13;5064889;28;20158;-64
2021/04/12 09:37:26;;;;;;;3.58;2.00;;;;;;;5.29;69.98;100998.03;5097279;28;20040;-62
2021/04/12 09:40:18;;;;;;;3.00;2.63;;;;;;;5.23;70.20;101003.75;5114473;28;20035;-63
2021/04/12 09:43:17;;;;;;;3.15;2.40;;;;;;;5.24;69.99;100996.91;5075789;28;20051;-64
2021/04/12 09:46:10;;;;;;;12.15;3.10;;;;;;;5.18;69.85;101000.94;5097089;28;20023;-64
2021/04/12 09:48:50;;;;;;;8.68;2.65;;;;;;;5.20;70.47;101000.16;5115406;28;20042;-63
2021/04/12 09:51:40;;;;;;;4.43;3.17;;;;;;;5.26;70.12;100995.31;5114371;28;20036;-64
2021/04/12 09:54:43;;;;;;;5.10;2.70;;;;;;;5.32;70.46;100988.78;5114055;28;20032;-64
2021/04/12 09:57:36;;;;;;;6.20;2.90;;;;;;;5.41;70.27;101001.25;5115466;28;20085;-64
2021/04/12 10:00:07;;;;;;;4.90;2.10;;;;;;;5.45;70.28;100999.75;5097079;28;20049;-64
2021/04/12 10:02:51;;;;;;;3.47;2.40;;;;;;;5.48;70.36;100994.75;5115263;28;20042;-64
2021/04/12 10:05:35;;;;;;;4.50;2.28;;;;;;;5.50;69.87;101000.84;5097431;28;20047;-64
2021/04/12 10:08:32;;;;;;;4.90;2.50;;;;;;;5.54;70.37;101000.22;5115196;28;20047;-64
2021/04/12 10:11:04;;;;;;;4.47;2.67;;;;;;;5.57;69.62;100999.47;5097297;28;20039;-64
2021/04/12 10:13:46;;;;;;;6.38;2.40;;;;;;;5.61;70.04;101003.97;5130986;27;20028;-63
2021/04/12 10:16:19;;;;;;;3.20;2.83;;;;;;;5.66;69.74;101006.78;5096999;28;20035;-63
2021/04/12 10:19:04;;;;;;;4.50;2.45;;;;;;;5.68;70.10;101011.22;5113746;28;20038;-64
2021/04/12 10:22:02;;;;;;;4.38;2.80;;;;;;;5.68;69.51;101018.94;5114722;28;20044;-64
2021/04/12 10:24:27;;;;;;;7.53;2.40;;;;;;;5.69;69.40;101012.09;5113858;28;20032;-64
2021/04/12 10:27:01;;;;;;;7.97;2.72;;;;;;;5.68;69.93;100997.47;5114004;28;20118;-64
2021/04/12 10:29:44;;;;;;;9.98;2.53;;;;;;;5.68;69.71;100995.78;5113724;28;20062;-64
2021/04/12 10:32:26;;;;;;;4.18;2.63;;;;;;;5.70;70.01;101003.56;5096106;28;20406;-64
2021/04/12 10:35:08;;;;;;;3.47;2.53;;;;;;;5.73;69.37;100998.59;5096629;28;20518;-64
2021/04/12 10:37:52;;;;;;;6.45;2.85;;;;;;;5.74;70.00;100990.94;5096544;28;20126;-64
2021/04/12 10:40:59;;;;;;;3.63;2.72;;;;;;;5.76;69.50;100991.03;5114495;28;20188;-64
2021/04/12 10:43:34;;;;;;;3.70;2.55;;;;;;;5.76;69.54;100983.31;5015094;28;20034;-64
2021/04/12 10:46:16;;;;;;;3.72;2.55;;;;;;;5.78;69.48;100985.16;5106251;28;20572;-64
2021/04/12 10:49:08;;;;;;;6.60;3.10;;;;;;;5.78;69.17;100982.59;5096249;28;20039;-64
2021/04/12 10:51:44;;;;;;;3.13;2.17;;;;;;;5.82;69.87;100982.75;5113418;28;20070;-64
2021/04/12 10:54:24;;;;;;;3.58;2.40;;;;;;;5.83;69.41;100979.38;5096126;28;20093;-64
2021/04/12 10:57:11;;;;;;;5.70;2.90;;;;;;;5.85;69.24;100982.88;5113391;28;20031;-64
2021/04/12 11:00:07;;;;;;;5.60;2.70;;;;;;;5.85;69.69;100991.50;5096632;28;20482;-64
2021/04/12 11:02:49;;;;;;;7.05;2.83;;;;;;;5.87;69.10;100977.00;5112996;28;20035;-64
2021/04/12 11:05:19;;;;;;;4.15;2.40;;;;;;;5.87;69.56;100981.25;5096044;28;20046;-64
2021/04/12 11:08:27;;;;;;;4.00;2.88;;;;;;;5.86;69.39;100993.25;5113147;28;20533;-64
2021/04/12 11:11:13;;;;;;;6.20;2.70;;;;;;;5.86;69.48;100992.34;5114096;28;20071;-64
2021/04/12 11:14:07;;;;;;;4.55;2.83;;;;;;;5.85;69.63;100999.22;5113928;28;20036;-64
2021/04/12 11:16:45;;;;;;;4.60;2.15;;;;;;;5.84;69.07;100987.16;5112754;28;20566;-63
2021/04/12 11:19:17;;;;;;;10.00;3.85;;;;;;;5.86;68.99;100995.81;5096195;28;20171;-63
2021/04/12 11:22:01;;;;;;;4.50;2.80;;;;;;;5.88;68.88;101001.03;5095445;28;20044;-64
2021/04/12 11:24:45;;;;;;;6.22;3.75;;;;;;;5.90;69.06;100996.84;5112444;28;20027;-64
2021/04/12 11:27:39;;;;;;;6.40;3.30;;;;;;;5.89;69.06;100997.66;5114528;28;20044;-63
2021/04/12 11:30:13;;;;;;;4.63;2.80;;;;;;;5.88;68.67;100994.22;5112529;28;20024;-64
2021/04/12 11:33:07;;;;;;;3.03;2.50;;;;;;;5.86;68.88;100990.69;5095666;28;20136;-63
2021/04/12 11:35:35;;;;;;;3.92;2.40;;;;;;;5.86;69.36;100994.94;5113436;28;20495;-63
2021/04/12 11:38:15;;;;;;;5.07;3.10;;;;;;;5.84;69.46;100994.88;5113941;28;20032;-64
2021/04/12 11:40:54;;;;;;;4.32;2.78;;;;;;;5.84;68.89;101015.44;5113752;27;20483;-64
2021/04/12 11:43:33;;;;;;;6.45;2.97;;;;;;;5.81;69.09;101017.00;5115623;28;20032;-64
2021/04/12 11:46:11;;;;;;;3.80;2.95;;;;;;;5.79;68.61;101009.16;5117011;28;20074;-64
2021/04/12 11:51:02;;;;;;;5.20;3.20;;;;;;;5.73;68.91;101037.19;5027205;27;20378;-64
2021/04/12 11:53:30;;;;;;;4.70;3.65;;;;;;;5.65;69.14;101034.22;5009610;28;20044;-64
2021/04/12 11:57:02;;;;;;;4.72;3.35;;;;;;;5.62;69.47;101039.19;5026661;28;20120;-64
2021/04/12 11:59:51;;;;;;;4.80;3.15;;;;;;;5.59;69.71;101075.03;4989509;28;20141;-63
2021/04/12 12:02:51;;;;;;;5.55;3.90;;;;;;;5.56;68.72;101082.56;5010383;28;20041;-63
2021/04/12 12:05:55;;;;;;;5.53;3.53;;;;;;;5.56;69.14;101087.72;5027152;28;20034;-63
2021/04/12 12:08:25;;;;;;;4.60;4.13;;;;;;;5.56;69.80;101091.19;5012658;28;20054;-64
2021/04/12 12:11:11;;;;;;;5.53;3.53;;;;;;;5.54;69.79;101103.06;4992967;28;20120;-63
2021/04/12 12:13:58;;;;;;;4.07;3.38;;;;;;;5.52;69.84;101107.25;5009394;28;20103;-64
2021/04/12 12:16:30;;;;;;;4.47;3.63;;;;;;;5.49;69.65;101122.50;4993206;28;20094;-64
2021/04/12 12:19:21;;;;;;;6.43;4.25;;;;;;;5.48;69.38;101139.63;5009305;28;20071;-63
2021/04/12 12:22:05;;;;;;;5.38;3.70;;;;;;;5.41;69.32;101146.94;5009322;28;20042;-63
2021/04/12 12:24:42;;;;;;;6.53;4.57;;;;;;;5.38;69.19;101157.03;5027052;28;20036;-63
2021/04/12 12:27:07;;;;;;;4.55;3.20;;;;;;;5.36;69.23;101163.78;5009062;28;20129;-63
2021/04/12 12:29:45;;;;;;;4.60;3.97;;;;;;;5.29;69.80;101153.19;5009058;28;20125;-63
2021/04/12 12:32:19;;;;;;;7.43;3.67;;;;;;;5.29;69.70;101165.13;5009560;28;20044;-64
2021/04/12 12:34:54;;;;;;;4.07;3.67;;;;;;;5.24;68.98;101154.59;4992829;28;20034;-64
2021/04/12 12:37:50;;;;;;;4.85;4.20;;;;;;;5.22;69.97;101156.19;5026832;28;20051;-64
2021/04/12 12:40:43;;;;;;;4.43;3.60;;;;;;;5.24;69.29;101146.00;5027256;28;20036;-63
2021/04/12 12:43:36;;;;;;;4.70;4.30;;;;;;;5.22;69.56;101143.34;4992857;28;20045;-64
2021/04/12 12:46:23;;;;;;;4.35;3.72;;;;;;;5.23;69.46;101133.94;4992491;28;20057;-64
2021/04/12 12:49:02;;;;;;;4.18;3.78;;;;;;;5.26;69.34;101141.81;4992329;28;20500;-64
2021/04/12 12:51:40;;;;;;;5.93;4.45;;;;;;;5.25;69.49;101133.25;5026737;28;20490;-63
2021/04/12 12:54:24;;;;;;;5.70;4.57;;;;;;;5.27;69.58;101131.66;5026526;28;20088;-63
2021/04/12 12:57:03;;;;;;;5.38;4.35;;;;;;;5.29;69.46;101131.72;5009471;28;20095;-64
2021/04/12 12:59:43;;;;;;;6.85;4.88;;;;;;;5.28;68.83;101135.09;5008789;28;20094;-64
2021/04/12 13:02:31;;;;;;;6.13;5.00;;;;;;;5.30;69.52;101141.19;5012988;28;20034;-64
2021/04/12 13:05:06;;;;;;;5.93;4.78;;;;;;;5.30;69.24;101134.34;5013474;28;20046;-63
2021/04/12 13:07:40;;;;;;;5.57;4.97;;;;;;;5.31;69.30;101137.84;4995354;28;20098;-64
2021/04/12 13:10:17;;;;;;;5.65;4.70;;;;;;;5.31;69.66;101132.69;4979501;28;20045;-64
2021/04/12 13:12:52;;;;;;;5.63;3.90;;;;;;;5.32;69.07;101134.47;5013074;28;20113;-64